Nashville, TN

12:12 PM CST en Diciembre 19, 2014 (GMT -0600)
Bates Nursery | Change Station
CLOSE
Current Station
Estación meteorológica personal
Location: Nashville, TN
Altura: 459 ft
Estaciones meteorológicas cercanas
Aviso en curso: Special Statement

Alt 459 ft 36.25 °N, 86.82 °W | Updated 6 seconds ago

Nublado
Nublado
40.9 ° F
Sensación térmica 39 ° F
N
3.1
Viento Variable Viento desde ENE
Gusts 5.8 mph

Hoy
Alta -- | Baja -- ° F
--% Posibilidad de precipitaciones
Ayer
Alta -- | Baja -- ° F
Precip. -- pul
6:53 AM 4:35 PM
Creciente menguante, 7% visible
Presión 30.27 pul
Visibilidad 10.0 Millas
Nubes Muy nublado 4400 ft
Nublado 4800 ft
Vientos helados 39 ° F
Punto de rocío 32 ° F
Humedad 69%
Precipitaciones 0.00 pul
Espesor de la nieve No disponible.
UV 1 de una escala de 12
Polen .10 de una escala de 12
Calidad del aire No disponible.
Flu Activity No disponible.
METAR KBNA 191753Z 04005KT 10SM BKN044 OVC048 04/M02 A3025 RMK AO2 SLP248 T00391022 10039 20017 58010

More Conditions Fewer Conditions

Presión 30.27 pul
Visibilidad 10.0 Millas
Nubes Muy nublado 4400 ft
Nublado 4800 ft
Vientos helados 39 ° F
Punto de rocío 32 ° F
Humedad 69%
Precipitaciones 0.00 pul
Espesor de la nieve No disponible.
UV 1 de una escala de 12
Polen .10 de una escala de 12
Calidad del aire No disponible.
Flu Activity No disponible.
METAR KBNA 191753Z 04005KT 10SM BKN044 OVC048 04/M02 A3025 RMK AO2 SLP248 T00391022 10039 20017 58010

More Conditions Fewer Conditions

10-Day Weather Forecast

Almanac

Astronomía

Dec. 19, 2014 Salida Puesta
Hora real
Crepúsculo civil
Crepúsculo náutico
Crepúsculo astronómico
Luna
Horas de luz
Horas de luz
Tomorrow will be .
, % of the Moon is Illuminated

Extremos de hoy

Máximos del estado Bajos del estado

Community

WunderPhotos

Upload Photos

1,779,015 ¡fotos cargadas!

WunderBlogs® & News

Nearby

Calidad del aire

  Calidad del aire Índice AQ Contaminante
Not available.

Grosos de nieve

Estación Profundido Altura

Actividad de terremotos

Ciudad Distance Mag. Tiempo y dato
Magnitud mínima muestra es 2,5.

Temperaturas de aguas costeras

Lugar Temperatura

Estaciones meteorológicas cercanas